sensor_id;sensor_type;location;lat;lon;timestamp;P1;durP1;ratioP1;P2;durP2;ratioP2
49366;SDS011;35245;52.026;8.540;2023-03-19T00:01:32;16.42;;;11.63;;
49366;SDS011;35245;52.026;8.540;2023-03-19T00:03:59;16.23;;;12.50;;
49366;SDS011;35245;52.026;8.540;2023-03-19T00:06:26;17.73;;;13.77;;
49366;SDS011;35245;52.026;8.540;2023-03-19T00:08:53;15.50;;;11.57;;
49366;SDS011;35245;52.026;8.540;2023-03-19T00:11:20;15.73;;;10.70;;
49366;SDS011;35245;52.026;8.540;2023-03-19T00:13:47;13.95;;;9.88;;
49366;SDS011;35245;52.026;8.540;2023-03-19T00:16:15;10.70;;;5.97;;
49366;SDS011;35245;52.026;8.540;2023-03-19T00:18:42;13.25;;;7.32;;
49366;SDS011;35245;52.026;8.540;2023-03-19T00:21:09;13.25;;;6.70;;
49366;SDS011;35245;52.026;8.540;2023-03-19T00:23:36;8.35;;;5.18;;
49366;SDS011;35245;52.026;8.540;2023-03-19T00:26:03;9.10;;;3.83;;
49366;SDS011;35245;52.026;8.540;2023-03-19T00:28:30;10.30;;;3.33;;
49366;SDS011;35245;52.026;8.540;2023-03-19T00:31:03;12.73;;;3.70;;
49366;SDS011;35245;52.026;8.540;2023-03-19T00:33:33;5.50;;;3.50;;
49366;SDS011;35245;52.026;8.540;2023-03-19T00:36:00;5.78;;;3.30;;
49366;SDS011;35245;52.026;8.540;2023-03-19T00:38:27;11.35;;;3.72;;
49366;SDS011;35245;52.026;8.540;2023-03-19T00:40:54;7.05;;;3.88;;
49366;SDS011;35245;52.026;8.540;2023-03-19T00:43:21;9.18;;;3.58;;
49366;SDS011;35245;52.026;8.540;2023-03-19T00:45:48;6.22;;;3.40;;
49366;SDS011;35245;52.026;8.540;2023-03-19T00:48:15;6.55;;;3.42;;
49366;SDS011;35245;52.026;8.540;2023-03-19T00:50:44;6.78;;;3.03;;
49366;SDS011;35245;52.026;8.540;2023-03-19T00:53:11;7.45;;;3.20;;
49366;SDS011;35245;52.026;8.540;2023-03-19T00:55:38;5.00;;;2.92;;
49366;SDS011;35245;52.026;8.540;2023-03-19T00:58:05;5.85;;;2.92;;
49366;SDS011;35245;52.026;8.540;2023-03-19T01:00:32;5.78;;;3.20;;
49366;SDS011;35245;52.026;8.540;2023-03-19T01:03:00;8.18;;;3.35;;
49366;SDS011;35245;52.026;8.540;2023-03-19T01:05:27;7.55;;;3.10;;
49366;SDS011;35245;52.026;8.540;2023-03-19T01:07:56;6.47;;;3.05;;
49366;SDS011;35245;52.026;8.540;2023-03-19T01:10:23;9.65;;;3.63;;
49366;SDS011;35245;52.026;8.540;2023-03-19T01:12:50;6.60;;;3.60;;
49366;SDS011;35245;52.026;8.540;2023-03-19T01:15:17;7.72;;;3.50;;
49366;SDS011;35245;52.026;8.540;2023-03-19T01:17:44;6.18;;;3.15;;
49366;SDS011;35245;52.026;8.540;2023-03-19T01:20:11;6.00;;;3.50;;
49366;SDS011;35245;52.026;8.540;2023-03-19T01:22:42;7.57;;;3.43;;
49366;SDS011;35245;52.026;8.540;2023-03-19T01:25:12;8.52;;;3.08;;
49366;SDS011;35245;52.026;8.540;2023-03-19T01:27:39;7.60;;;3.10;;
49366;SDS011;35245;52.026;8.540;2023-03-19T01:30:07;8.88;;;3.42;;
49366;SDS011;35245;52.026;8.540;2023-03-19T01:32:35;5.93;;;2.92;;
49366;SDS011;35245;52.026;8.540;2023-03-19T01:35:02;7.28;;;2.72;;
49366;SDS011;35245;52.026;8.540;2023-03-19T01:37:29;5.50;;;3.20;;
49366;SDS011;35245;52.026;8.540;2023-03-19T01:39:56;4.97;;;2.80;;
49366;SDS011;35245;52.026;8.540;2023-03-19T01:42:24;6.88;;;3.25;;
49366;SDS011;35245;52.026;8.540;2023-03-19T01:44:51;7.93;;;2.88;;
49366;SDS011;35245;52.026;8.540;2023-03-19T01:47:21;6.30;;;3.00;;
49366;SDS011;35245;52.026;8.540;2023-03-19T01:49:53;7.57;;;3.40;;
49366;SDS011;35245;52.026;8.540;2023-03-19T01:52:21;9.45;;;3.78;;
49366;SDS011;35245;52.026;8.540;2023-03-19T01:54:49;7.43;;;3.15;;
49366;SDS011;35245;52.026;8.540;2023-03-19T01:57:16;7.13;;;3.05;;
49366;SDS011;35245;52.026;8.540;2023-03-19T01:59:46;6.32;;;2.75;;
49366;SDS011;35245;52.026;8.540;2023-03-19T02:02:16;5.43;;;2.60;;
49366;SDS011;35245;52.026;8.540;2023-03-19T02:04:47;9.75;;;2.88;;
49366;SDS011;35245;52.026;8.540;2023-03-19T02:07:17;5.38;;;2.45;;
49366;SDS011;35245;52.026;8.540;2023-03-19T02:09:44;10.02;;;2.85;;
49366;SDS011;35245;52.026;8.540;2023-03-19T02:12:12;8.05;;;3.00;;
49366;SDS011;35245;52.026;8.540;2023-03-19T02:14:40;6.53;;;2.42;;
49366;SDS011;35245;52.026;8.540;2023-03-19T02:17:08;4.93;;;3.00;;
49366;SDS011;35245;52.026;8.540;2023-03-19T02:19:37;6.15;;;3.00;;
49366;SDS011;35245;52.026;8.540;2023-03-19T02:22:08;4.32;;;2.40;;
49366;SDS011;35245;52.026;8.540;2023-03-19T02:24:37;4.45;;;2.63;;
49366;SDS011;35245;52.026;8.540;2023-03-19T02:27:07;6.38;;;2.65;;
49366;SDS011;35245;52.026;8.540;2023-03-19T02:29:34;7.03;;;2.60;;
49366;SDS011;35245;52.026;8.540;2023-03-19T02:32:03;4.63;;;2.70;;
49366;SDS011;35245;52.026;8.540;2023-03-19T02:34:35;7.88;;;2.90;;
49366;SDS011;35245;52.026;8.540;2023-03-19T02:37:04;5.70;;;2.90;;
49366;SDS011;35245;52.026;8.540;2023-03-19T02:39:36;3.92;;;2.58;;
49366;SDS011;35245;52.026;8.540;2023-03-19T02:42:07;7.18;;;3.53;;
49366;SDS011;35245;52.026;8.540;2023-03-19T02:44:35;6.95;;;3.28;;
49366;SDS011;35245;52.026;8.540;2023-03-19T02:47:02;5.28;;;3.13;;
49366;SDS011;35245;52.026;8.540;2023-03-19T02:49:29;6.45;;;2.97;;
49366;SDS011;35245;52.026;8.540;2023-03-19T02:51:56;4.70;;;2.38;;
49366;SDS011;35245;52.026;8.540;2023-03-19T02:54:22;6.60;;;2.78;;
49366;SDS011;35245;52.026;8.540;2023-03-19T02:56:49;36.03;;;15.93;;
49366;SDS011;35245;52.026;8.540;2023-03-19T02:59:18;9.63;;;3.72;;
49366;SDS011;35245;52.026;8.540;2023-03-19T03:01:45;6.35;;;3.00;;
49366;SDS011;35245;52.026;8.540;2023-03-19T03:04:12;6.85;;;2.83;;
49366;SDS011;35245;52.026;8.540;2023-03-19T03:06:40;5.72;;;2.58;;
49366;SDS011;35245;52.026;8.540;2023-03-19T03:09:08;10.65;;;4.25;;
49366;SDS011;35245;52.026;8.540;2023-03-19T03:11:35;8.35;;;3.60;;
49366;SDS011;35245;52.026;8.540;2023-03-19T03:14:02;7.75;;;3.15;;
49366;SDS011;35245;52.026;8.540;2023-03-19T03:16:30;8.88;;;3.35;;
49366;SDS011;35245;52.026;8.540;2023-03-19T03:18:57;4.97;;;2.58;;
49366;SDS011;35245;52.026;8.540;2023-03-19T03:21:24;6.82;;;3.67;;
49366;SDS011;35245;52.026;8.540;2023-03-19T03:23:51;7.90;;;3.30;;
49366;SDS011;35245;52.026;8.540;2023-03-19T03:26:18;8.00;;;3.30;;
49366;SDS011;35245;52.026;8.540;2023-03-19T03:28:45;7.75;;;3.42;;
49366;SDS011;35245;52.026;8.540;2023-03-19T03:31:12;8.73;;;3.30;;
49366;SDS011;35245;52.026;8.540;2023-03-19T03:33:40;5.75;;;2.70;;
49366;SDS011;35245;52.026;8.540;2023-03-19T03:36:07;6.72;;;3.53;;
49366;SDS011;35245;52.026;8.540;2023-03-19T03:38:34;6.70;;;3.60;;
49366;SDS011;35245;52.026;8.540;2023-03-19T03:41:01;6.70;;;3.40;;
49366;SDS011;35245;52.026;8.540;2023-03-19T03:43:28;8.23;;;3.95;;
49366;SDS011;35245;52.026;8.540;2023-03-19T03:45:55;8.45;;;3.92;;
49366;SDS011;35245;52.026;8.540;2023-03-19T03:48:22;8.20;;;4.85;;
49366;SDS011;35245;52.026;8.540;2023-03-19T03:50:51;9.05;;;5.00;;
49366;SDS011;35245;52.026;8.540;2023-03-19T03:53:18;8.50;;;5.97;;
49366;SDS011;35245;52.026;8.540;2023-03-19T03:55:45;10.73;;;6.20;;
49366;SDS011;35245;52.026;8.540;2023-03-19T03:58:12;10.60;;;6.07;;
49366;SDS011;35245;52.026;8.540;2023-03-19T04:00:39;10.38;;;6.13;;
49366;SDS011;35245;52.026;8.540;2023-03-19T04:03:06;9.18;;;5.65;;
49366;SDS011;35245;52.026;8.540;2023-03-19T04:05:33;10.70;;;5.57;;
49366;SDS011;35245;52.026;8.540;2023-03-19T04:08:01;8.98;;;5.45;;
49366;SDS011;35245;52.026;8.540;2023-03-19T04:10:29;8.40;;;5.75;;
49366;SDS011;35245;52.026;8.540;2023-03-19T04:12:56;10.20;;;5.57;;
49366;SDS011;35245;52.026;8.540;2023-03-19T04:15:23;9.70;;;5.68;;
49366;SDS011;35245;52.026;8.540;2023-03-19T04:17:50;10.15;;;5.13;;
49366;SDS011;35245;52.026;8.540;2023-03-19T04:20:17;11.40;;;6.28;;
49366;SDS011;35245;52.026;8.540;2023-03-19T04:22:46;11.48;;;5.95;;
49366;SDS011;35245;52.026;8.540;2023-03-19T04:25:15;9.23;;;5.72;;
49366;SDS011;35245;52.026;8.540;2023-03-19T04:27:42;10.15;;;5.55;;
49366;SDS011;35245;52.026;8.540;2023-03-19T04:30:10;8.25;;;5.07;;
49366;SDS011;35245;52.026;8.540;2023-03-19T04:32:37;9.50;;;5.13;;
49366;SDS011;35245;52.026;8.540;2023-03-19T04:35:04;8.30;;;4.97;;
49366;SDS011;35245;52.026;8.540;2023-03-19T04:37:32;8.40;;;5.57;;
49366;SDS011;35245;52.026;8.540;2023-03-19T04:39:59;9.00;;;5.72;;
49366;SDS011;35245;52.026;8.540;2023-03-19T04:42:27;9.15;;;5.43;;
49366;SDS011;35245;52.026;8.540;2023-03-19T04:44:54;8.40;;;5.25;;
49366;SDS011;35245;52.026;8.540;2023-03-19T04:47:21;11.88;;;6.30;;
49366;SDS011;35245;52.026;8.540;2023-03-19T04:49:48;10.82;;;5.97;;
49366;SDS011;35245;52.026;8.540;2023-03-19T04:52:15;7.50;;;5.90;;
49366;SDS011;35245;52.026;8.540;2023-03-19T04:54:42;9.68;;;5.65;;
49366;SDS011;35245;52.026;8.540;2023-03-19T04:57:09;9.93;;;5.50;;
49366;SDS011;35245;52.026;8.540;2023-03-19T04:59:37;9.88;;;5.88;;
49366;SDS011;35245;52.026;8.540;2023-03-19T05:02:05;13.48;;;6.70;;
49366;SDS011;35245;52.026;8.540;2023-03-19T05:04:32;12.10;;;6.10;;
49366;SDS011;35245;52.026;8.540;2023-03-19T05:06:59;8.45;;;5.35;;
49366;SDS011;35245;52.026;8.540;2023-03-19T05:09:26;9.35;;;6.63;;
49366;SDS011;35245;52.026;8.540;2023-03-19T05:11:54;12.98;;;7.07;;
49366;SDS011;35245;52.026;8.540;2023-03-19T05:14:22;8.75;;;6.15;;
49366;SDS011;35245;52.026;8.540;2023-03-19T05:16:50;10.52;;;6.43;;
49366;SDS011;35245;52.026;8.540;2023-03-19T05:19:17;8.75;;;5.93;;
49366;SDS011;35245;52.026;8.540;2023-03-19T05:21:44;9.50;;;6.30;;
49366;SDS011;35245;52.026;8.540;2023-03-19T05:24:11;8.75;;;6.30;;
49366;SDS011;35245;52.026;8.540;2023-03-19T05:26:38;8.57;;;6.30;;
49366;SDS011;35245;52.026;8.540;2023-03-19T05:29:05;9.13;;;5.78;;
49366;SDS011;35245;52.026;8.540;2023-03-19T05:31:35;11.05;;;6.13;;
49366;SDS011;35245;52.026;8.540;2023-03-19T05:34:03;10.82;;;6.00;;
49366;SDS011;35245;52.026;8.540;2023-03-19T05:36:30;14.05;;;6.82;;
49366;SDS011;35245;52.026;8.540;2023-03-19T05:38:57;9.27;;;6.22;;
49366;SDS011;35245;52.026;8.540;2023-03-19T05:41:25;8.02;;;5.97;;
49366;SDS011;35245;52.026;8.540;2023-03-19T05:43:52;8.98;;;5.75;;
49366;SDS011;35245;52.026;8.540;2023-03-19T05:46:18;11.48;;;6.53;;
49366;SDS011;35245;52.026;8.540;2023-03-19T05:48:46;13.48;;;7.72;;
49366;SDS011;35245;52.026;8.540;2023-03-19T05:51:14;10.32;;;6.88;;
49366;SDS011;35245;52.026;8.540;2023-03-19T05:53:41;10.88;;;6.88;;
49366;SDS011;35245;52.026;8.540;2023-03-19T05:56:08;10.65;;;6.95;;
49366;SDS011;35245;52.026;8.540;2023-03-19T05:58:35;9.82;;;6.80;;
49366;SDS011;35245;52.026;8.540;2023-03-19T06:01:02;10.90;;;6.60;;
49366;SDS011;35245;52.026;8.540;2023-03-19T06:03:30;11.57;;;6.32;;
49366;SDS011;35245;52.026;8.540;2023-03-19T06:05:56;8.93;;;5.60;;
49366;SDS011;35245;52.026;8.540;2023-03-19T06:08:25;9.68;;;4.70;;
49366;SDS011;35245;52.026;8.540;2023-03-19T06:10:52;9.35;;;4.05;;
49366;SDS011;35245;52.026;8.540;2023-03-19T06:13:19;8.88;;;3.40;;
49366;SDS011;35245;52.026;8.540;2023-03-19T06:15:46;7.70;;;3.70;;
49366;SDS011;35245;52.026;8.540;2023-03-19T06:18:13;5.15;;;2.85;;
49366;SDS011;35245;52.026;8.540;2023-03-19T06:20:40;8.98;;;3.30;;
49366;SDS011;35245;52.026;8.540;2023-03-19T06:23:07;6.05;;;3.00;;
49366;SDS011;35245;52.026;8.540;2023-03-19T06:25:36;6.35;;;2.90;;
49366;SDS011;35245;52.026;8.540;2023-03-19T06:28:03;6.35;;;3.10;;
49366;SDS011;35245;52.026;8.540;2023-03-19T06:30:30;7.45;;;2.78;;
49366;SDS011;35245;52.026;8.540;2023-03-19T06:32:58;6.03;;;2.90;;
49366;SDS011;35245;52.026;8.540;2023-03-19T06:35:25;5.68;;;2.80;;
49366;SDS011;35245;52.026;8.540;2023-03-19T06:37:51;4.93;;;2.47;;
49366;SDS011;35245;52.026;8.540;2023-03-19T06:40:19;7.10;;;3.08;;
49366;SDS011;35245;52.026;8.540;2023-03-19T06:42:47;4.88;;;2.63;;
49366;SDS011;35245;52.026;8.540;2023-03-19T06:45:14;7.28;;;3.05;;
49366;SDS011;35245;52.026;8.540;2023-03-19T06:47:43;6.30;;;2.60;;
49366;SDS011;35245;52.026;8.540;2023-03-19T06:50:10;6.32;;;2.90;;
49366;SDS011;35245;52.026;8.540;2023-03-19T06:52:37;6.43;;;2.72;;
49366;SDS011;35245;52.026;8.540;2023-03-19T06:55:04;5.43;;;2.42;;
49366;SDS011;35245;52.026;8.540;2023-03-19T06:57:32;4.32;;;2.50;;
49366;SDS011;35245;52.026;8.540;2023-03-19T07:00:00;6.40;;;3.22;;
49366;SDS011;35245;52.026;8.540;2023-03-19T07:02:28;6.75;;;3.00;;
49366;SDS011;35245;52.026;8.540;2023-03-19T07:04:55;8.15;;;2.67;;
49366;SDS011;35245;52.026;8.540;2023-03-19T07:07:22;6.35;;;2.42;;
49366;SDS011;35245;52.026;8.540;2023-03-19T07:09:49;5.10;;;2.50;;
49366;SDS011;35245;52.026;8.540;2023-03-19T07:12:16;4.75;;;2.25;;
49366;SDS011;35245;52.026;8.540;2023-03-19T07:14:43;5.03;;;1.90;;
49366;SDS011;35245;52.026;8.540;2023-03-19T07:17:11;7.00;;;2.35;;
49366;SDS011;35245;52.026;8.540;2023-03-19T07:19:38;6.25;;;2.15;;
49366;SDS011;35245;52.026;8.540;2023-03-19T07:22:05;3.90;;;1.98;;
49366;SDS011;35245;52.026;8.540;2023-03-19T07:24:32;3.65;;;2.17;;
49366;SDS011;35245;52.026;8.540;2023-03-19T07:26:59;4.80;;;2.15;;
49366;SDS011;35245;52.026;8.540;2023-03-19T07:29:26;6.47;;;2.10;;
49366;SDS011;35245;52.026;8.540;2023-03-19T07:31:53;5.50;;;1.92;;
49366;SDS011;35245;52.026;8.540;2023-03-19T07:34:21;5.25;;;2.08;;
49366;SDS011;35245;52.026;8.540;2023-03-19T07:36:48;5.50;;;2.17;;
49366;SDS011;35245;52.026;8.540;2023-03-19T07:39:15;7.85;;;2.38;;
49366;SDS011;35245;52.026;8.540;2023-03-19T07:41:42;3.83;;;2.13;;
49366;SDS011;35245;52.026;8.540;2023-03-19T07:44:11;5.45;;;2.35;;
49366;SDS011;35245;52.026;8.540;2023-03-19T07:46:38;7.68;;;3.00;;
49366;SDS011;35245;52.026;8.540;2023-03-19T07:49:05;6.65;;;2.42;;
49366;SDS011;35245;52.026;8.540;2023-03-19T07:51:34;7.22;;;2.60;;
49366;SDS011;35245;52.026;8.540;2023-03-19T07:54:01;6.18;;;2.38;;
49366;SDS011;35245;52.026;8.540;2023-03-19T07:56:28;7.85;;;2.45;;
49366;SDS011;35245;52.026;8.540;2023-03-19T07:58:55;6.60;;;2.40;;
49366;SDS011;35245;52.026;8.540;2023-03-19T08:01:22;7.35;;;2.80;;
49366;SDS011;35245;52.026;8.540;2023-03-19T08:03:49;11.95;;;6.07;;
49366;SDS011;35245;52.026;8.540;2023-03-19T08:06:16;4.72;;;2.83;;
49366;SDS011;35245;52.026;8.540;2023-03-19T08:08:44;5.53;;;2.85;;
49366;SDS011;35245;52.026;8.540;2023-03-19T08:11:11;6.45;;;2.85;;
49366;SDS011;35245;52.026;8.540;2023-03-19T08:13:38;7.30;;;2.72;;
49366;SDS011;35245;52.026;8.540;2023-03-19T08:16:05;7.95;;;2.97;;
49366;SDS011;35245;52.026;8.540;2023-03-19T08:18:32;7.80;;;2.90;;
49366;SDS011;35245;52.026;8.540;2023-03-19T08:21:00;8.48;;;2.97;;
49366;SDS011;35245;52.026;8.540;2023-03-19T08:23:26;6.53;;;2.88;;
49366;SDS011;35245;52.026;8.540;2023-03-19T08:25:55;7.40;;;3.30;;
49366;SDS011;35245;52.026;8.540;2023-03-19T08:28:22;11.98;;;2.83;;
49366;SDS011;35245;52.026;8.540;2023-03-19T08:30:49;5.78;;;3.05;;
49366;SDS011;35245;52.026;8.540;2023-03-19T08:33:16;8.60;;;3.10;;
49366;SDS011;35245;52.026;8.540;2023-03-19T08:35:43;7.18;;;2.72;;
49366;SDS011;35245;52.026;8.540;2023-03-19T08:38:10;6.80;;;2.80;;
49366;SDS011;35245;52.026;8.540;2023-03-19T08:40:37;8.80;;;3.70;;
49366;SDS011;35245;52.026;8.540;2023-03-19T08:43:05;6.28;;;3.63;;
49366;SDS011;35245;52.026;8.540;2023-03-19T08:45:32;9.25;;;3.70;;
49366;SDS011;35245;52.026;8.540;2023-03-19T08:48:00;7.45;;;3.67;;
49366;SDS011;35245;52.026;8.540;2023-03-19T08:50:27;7.50;;;3.58;;
49366;SDS011;35245;52.026;8.540;2023-03-19T08:52:54;7.22;;;3.28;;
49366;SDS011;35245;52.026;8.540;2023-03-19T08:55:21;6.10;;;3.60;;
49366;SDS011;35245;52.026;8.540;2023-03-19T08:57:48;7.97;;;3.58;;
49366;SDS011;35245;52.026;8.540;2023-03-19T09:00:17;7.88;;;3.17;;
49366;SDS011;35245;52.026;8.540;2023-03-19T09:02:44;6.07;;;3.42;;
49366;SDS011;35245;52.026;8.540;2023-03-19T09:05:11;8.10;;;3.05;;
49366;SDS011;35245;52.026;8.540;2023-03-19T09:07:38;5.85;;;2.97;;
49366;SDS011;35245;52.026;8.540;2023-03-19T09:10:06;8.18;;;3.38;;
49366;SDS011;35245;52.026;8.540;2023-03-19T09:12:33;4.35;;;3.00;;
49366;SDS011;35245;52.026;8.540;2023-03-19T09:15:00;6.13;;;3.10;;
49366;SDS011;35245;52.026;8.540;2023-03-19T09:17:28;7.72;;;3.40;;
49366;SDS011;35245;52.026;8.540;2023-03-19T09:19:55;5.95;;;3.00;;
49366;SDS011;35245;52.026;8.540;2023-03-19T09:22:22;5.63;;;3.22;;
49366;SDS011;35245;52.026;8.540;2023-03-19T09:24:50;5.18;;;3.00;;
49366;SDS011;35245;52.026;8.540;2023-03-19T09:27:16;5.70;;;3.10;;
49366;SDS011;35245;52.026;8.540;2023-03-19T09:29:45;7.13;;;3.80;;
49366;SDS011;35245;52.026;8.540;2023-03-19T09:32:12;8.98;;;3.65;;
49366;SDS011;35245;52.026;8.540;2023-03-19T09:34:40;9.68;;;3.60;;
49366;SDS011;35245;52.026;8.540;2023-03-19T09:37:07;4.97;;;3.50;;
49366;SDS011;35245;52.026;8.540;2023-03-19T09:39:35;6.15;;;3.88;;
49366;SDS011;35245;52.026;8.540;2023-03-19T09:42:09;6.22;;;3.90;;
49366;SDS011;35245;52.026;8.540;2023-03-19T09:44:42;5.38;;;3.50;;
49366;SDS011;35245;52.026;8.540;2023-03-19T09:47:15;5.80;;;3.60;;
49366;SDS011;35245;52.026;8.540;2023-03-19T09:49:52;5.40;;;3.50;;
49366;SDS011;35245;52.026;8.540;2023-03-19T09:52:34;5.43;;;3.50;;
49366;SDS011;35245;52.026;8.540;2023-03-19T09:55:10;8.95;;;3.80;;
49366;SDS011;35245;52.026;8.540;2023-03-19T09:57:44;6.43;;;3.42;;
49366;SDS011;35245;52.026;8.540;2023-03-19T10:00:18;5.28;;;3.40;;
49366;SDS011;35245;52.026;8.540;2023-03-19T10:02:46;5.78;;;3.25;;
49366;SDS011;35245;52.026;8.540;2023-03-19T10:05:22;7.45;;;3.80;;
49366;SDS011;35245;52.026;8.540;2023-03-19T10:07:56;8.05;;;3.55;;
49366;SDS011;35245;52.026;8.540;2023-03-19T10:10:41;7.40;;;3.55;;
49366;SDS011;35245;52.026;8.540;2023-03-19T10:13:15;6.53;;;3.78;;
49366;SDS011;35245;52.026;8.540;2023-03-19T10:15:49;10.82;;;4.57;;
49366;SDS011;35245;52.026;8.540;2023-03-19T10:18:18;6.07;;;3.90;;
49366;SDS011;35245;52.026;8.540;2023-03-19T10:20:50;6.18;;;4.07;;
49366;SDS011;35245;52.026;8.540;2023-03-19T10:23:30;8.50;;;4.63;;
49366;SDS011;35245;52.026;8.540;2023-03-19T10:26:01;6.80;;;3.80;;
49366;SDS011;35245;52.026;8.540;2023-03-19T10:28:29;7.82;;;4.80;;
49366;SDS011;35245;52.026;8.540;2023-03-19T10:30:59;6.22;;;4.22;;
49366;SDS011;35245;52.026;8.540;2023-03-19T10:33:33;8.75;;;6.15;;
49366;SDS011;35245;52.026;8.540;2023-03-19T10:36:07;8.85;;;5.13;;
49366;SDS011;35245;52.026;8.540;2023-03-19T10:38:38;8.23;;;5.05;;
49366;SDS011;35245;52.026;8.540;2023-03-19T10:41:11;9.68;;;4.90;;
49366;SDS011;35245;52.026;8.540;2023-03-19T10:43:47;7.75;;;5.25;;
49366;SDS011;35245;52.026;8.540;2023-03-19T10:46:19;9.90;;;5.65;;
49366;SDS011;35245;52.026;8.540;2023-03-19T10:48:46;6.50;;;4.90;;
49366;SDS011;35245;52.026;8.540;2023-03-19T10:51:15;9.02;;;5.80;;
49366;SDS011;35245;52.026;8.540;2023-03-19T10:53:45;7.50;;;5.13;;
49366;SDS011;35245;52.026;8.540;2023-03-19T10:56:16;10.02;;;5.35;;
49366;SDS011;35245;52.026;8.540;2023-03-19T10:58:54;8.48;;;5.35;;
49366;SDS011;35245;52.026;8.540;2023-03-19T11:01:25;7.82;;;5.10;;
49366;SDS011;35245;52.026;8.540;2023-03-19T11:03:54;8.18;;;5.15;;
49366;SDS011;35245;52.026;8.540;2023-03-19T11:06:24;6.07;;;4.50;;
49366;SDS011;35245;52.026;8.540;2023-03-19T11:08:55;8.20;;;4.55;;
49366;SDS011;35245;52.026;8.540;2023-03-19T11:11:31;9.45;;;5.47;;
49366;SDS011;35245;52.026;8.540;2023-03-19T11:14:04;6.65;;;4.35;;
49366;SDS011;35245;52.026;8.540;2023-03-19T11:16:44;5.63;;;3.90;;
49366;SDS011;35245;52.026;8.540;2023-03-19T11:19:18;9.50;;;4.38;;
49366;SDS011;35245;52.026;8.540;2023-03-19T11:24:39;4.68;;;3.55;;
49366;SDS011;35245;52.026;8.540;2023-03-19T11:27:07;4.57;;;3.60;;
49366;SDS011;35245;52.026;8.540;2023-03-19T11:29:36;7.43;;;4.32;;
49366;SDS011;35245;52.026;8.540;2023-03-19T11:32:09;8.32;;;4.45;;
49366;SDS011;35245;52.026;8.540;2023-03-19T11:34:46;6.25;;;4.13;;
49366;SDS011;35245;52.026;8.540;2023-03-19T11:37:18;6.18;;;4.15;;
49366;SDS011;35245;52.026;8.540;2023-03-19T11:39:54;6.43;;;4.63;;
49366;SDS011;35245;52.026;8.540;2023-03-19T11:42:28;8.65;;;5.10;;
49366;SDS011;35245;52.026;8.540;2023-03-19T11:45:04;5.50;;;4.65;;
49366;SDS011;35245;52.026;8.540;2023-03-19T11:47:38;5.70;;;4.70;;
49366;SDS011;35245;52.026;8.540;2023-03-19T11:50:13;5.40;;;4.50;;
49366;SDS011;35245;52.026;8.540;2023-03-19T11:52:53;5.90;;;3.90;;
49366;SDS011;35245;52.026;8.540;2023-03-19T11:55:27;6.50;;;3.75;;
49366;SDS011;35245;52.026;8.540;2023-03-19T11:58:16;8.18;;;3.92;;
49366;SDS011;35245;52.026;8.540;2023-03-19T12:00:53;6.88;;;3.80;;
49366;SDS011;35245;52.026;8.540;2023-03-19T12:03:33;4.90;;;4.28;;
49366;SDS011;35245;52.026;8.540;2023-03-19T12:06:15;4.75;;;3.97;;
49366;SDS011;35245;52.026;8.540;2023-03-19T12:08:52;6.25;;;3.92;;
49366;SDS011;35245;52.026;8.540;2023-03-19T12:11:22;5.47;;;4.15;;
49366;SDS011;35245;52.026;8.540;2023-03-19T12:13:53;5.15;;;4.00;;
49366;SDS011;35245;52.026;8.540;2023-03-19T12:19:17;4.07;;;3.33;;
49366;SDS011;35245;52.026;8.540;2023-03-19T12:21:54;5.97;;;3.95;;
49366;SDS011;35245;52.026;8.540;2023-03-19T12:24:31;4.70;;;3.75;;
49366;SDS011;35245;52.026;8.540;2023-03-19T12:27:16;4.70;;;3.78;;
49366;SDS011;35245;52.026;8.540;2023-03-19T12:29:49;5.72;;;4.07;;
49366;SDS011;35245;52.026;8.540;2023-03-19T12:32:24;6.38;;;4.28;;
49366;SDS011;35245;52.026;8.540;2023-03-19T12:35:04;5.05;;;4.50;;
49366;SDS011;35245;52.026;8.540;2023-03-19T12:37:37;5.55;;;3.97;;
49366;SDS011;35245;52.026;8.540;2023-03-19T12:40:14;4.97;;;4.30;;
49366;SDS011;35245;52.026;8.540;2023-03-19T12:42:46;6.18;;;4.85;;
49366;SDS011;35245;52.026;8.540;2023-03-19T12:45:20;6.95;;;4.20;;
49366;SDS011;35245;52.026;8.540;2023-03-19T12:47:51;6.80;;;4.82;;
49366;SDS011;35245;52.026;8.540;2023-03-19T12:50:21;9.15;;;5.28;;
49366;SDS011;35245;52.026;8.540;2023-03-19T12:52:49;7.72;;;6.28;;
49366;SDS011;35245;52.026;8.540;2023-03-19T12:55:19;7.97;;;5.80;;
49366;SDS011;35245;52.026;8.540;2023-03-19T12:57:48;8.27;;;5.88;;
49366;SDS011;35245;52.026;8.540;2023-03-19T13:00:18;6.30;;;5.40;;
49366;SDS011;35245;52.026;8.540;2023-03-19T13:02:52;8.32;;;6.15;;
49366;SDS011;35245;52.026;8.540;2023-03-19T13:05:24;9.15;;;6.75;;
49366;SDS011;35245;52.026;8.540;2023-03-19T13:07:56;8.43;;;5.90;;
49366;SDS011;35245;52.026;8.540;2023-03-19T13:10:28;8.75;;;7.00;;
49366;SDS011;35245;52.026;8.540;2023-03-19T13:12:56;7.57;;;5.65;;
49366;SDS011;35245;52.026;8.540;2023-03-19T13:15:25;6.05;;;4.55;;
49366;SDS011;35245;52.026;8.540;2023-03-19T13:17:56;6.90;;;4.90;;
49366;SDS011;35245;52.026;8.540;2023-03-19T13:20:30;5.55;;;4.50;;
49366;SDS011;35245;52.026;8.540;2023-03-19T13:23:08;6.28;;;4.72;;
49366;SDS011;35245;52.026;8.540;2023-03-19T13:25:40;5.25;;;4.45;;
49366;SDS011;35245;52.026;8.540;2023-03-19T13:28:09;6.55;;;5.13;;
49366;SDS011;35245;52.026;8.540;2023-03-19T13:30:37;6.43;;;5.50;;
49366;SDS011;35245;52.026;8.540;2023-03-19T13:33:12;7.13;;;5.65;;
49366;SDS011;35245;52.026;8.540;2023-03-19T13:35:42;7.10;;;5.38;;
49366;SDS011;35245;52.026;8.540;2023-03-19T13:38:14;7.75;;;5.72;;
49366;SDS011;35245;52.026;8.540;2023-03-19T13:40:46;8.00;;;5.45;;
49366;SDS011;35245;52.026;8.540;2023-03-19T13:43:21;7.13;;;4.90;;
49366;SDS011;35245;52.026;8.540;2023-03-19T13:46:04;6.25;;;4.70;;
49366;SDS011;35245;52.026;8.540;2023-03-19T13:51:57;8.50;;;5.35;;
49366;SDS011;35245;52.026;8.540;2023-03-19T13:54:33;7.60;;;5.63;;
49366;SDS011;35245;52.026;8.540;2023-03-19T13:57:04;6.93;;;5.03;;
49366;SDS011;35245;52.026;8.540;2023-03-19T13:59:47;7.32;;;5.80;;
49366;SDS011;35245;52.026;8.540;2023-03-19T14:05:15;6.53;;;5.45;;
49366;SDS011;35245;52.026;8.540;2023-03-19T14:07:46;6.25;;;5.15;;
49366;SDS011;35245;52.026;8.540;2023-03-19T14:10:17;7.05;;;6.03;;
49366;SDS011;35245;52.026;8.540;2023-03-19T14:12:50;8.00;;;6.00;;
49366;SDS011;35245;52.026;8.540;2023-03-19T14:15:26;7.47;;;5.85;;
49366;SDS011;35245;52.026;8.540;2023-03-19T14:17:56;7.25;;;6.00;;
49366;SDS011;35245;52.026;8.540;2023-03-19T14:20:25;7.07;;;5.97;;
49366;SDS011;35245;52.026;8.540;2023-03-19T14:22:56;9.35;;;6.75;;
49366;SDS011;35245;52.026;8.540;2023-03-19T14:28:36;9.10;;;7.00;;
49366;SDS011;35245;52.026;8.540;2023-03-19T14:31:12;9.98;;;7.82;;
49366;SDS011;35245;52.026;8.540;2023-03-19T14:33:50;11.35;;;7.47;;
49366;SDS011;35245;52.026;8.540;2023-03-19T14:36:21;10.90;;;7.90;;
49366;SDS011;35245;52.026;8.540;2023-03-19T14:38:49;10.50;;;7.05;;
49366;SDS011;35245;52.026;8.540;2023-03-19T14:41:19;8.75;;;6.95;;
49366;SDS011;35245;52.026;8.540;2023-03-19T14:43:54;10.20;;;7.78;;
49366;SDS011;35245;52.026;8.540;2023-03-19T14:46:43;9.57;;;7.38;;
49366;SDS011;35245;52.026;8.540;2023-03-19T14:52:16;8.82;;;6.70;;
49366;SDS011;35245;52.026;8.540;2023-03-19T14:54:47;7.97;;;6.20;;
49366;SDS011;35245;52.026;8.540;2023-03-19T14:57:17;9.63;;;5.93;;
49366;SDS011;35245;52.026;8.540;2023-03-19T14:59:46;7.25;;;5.57;;
49366;SDS011;35245;52.026;8.540;2023-03-19T15:02:19;8.80;;;6.80;;
49366;SDS011;35245;52.026;8.540;2023-03-19T15:04:50;10.60;;;7.00;;
49366;SDS011;35245;52.026;8.540;2023-03-19T15:07:19;10.35;;;6.68;;
49366;SDS011;35245;52.026;8.540;2023-03-19T15:09:48;8.70;;;6.80;;
49366;SDS011;35245;52.026;8.540;2023-03-19T15:12:28;9.50;;;6.80;;
49366;SDS011;35245;52.026;8.540;2023-03-19T15:17:57;10.02;;;6.50;;
49366;SDS011;35245;52.026;8.540;2023-03-19T15:20:25;7.78;;;6.30;;